Accueil
METAR-TAF:

METAR-TAF

Aéroports :

Page, Arizona, États-Unis

latitude: 36-55-14N, longitude: 111-26-53W, altitude: 1314 m

Observation

Le bulletin a été fait il y a 25 minutes, à 12:53 UTC
Vent 3 kt de sud-ouest
Température 14°C
Humidité 47%
Pression 1025 hPa
Visibilité: 16.1 km
Nuages épars à une hauteur de 11000 ft

METAR: KPGA 061253Z AUTO 23003KT 10SM SCT110 14/03 A3026 RMK AO2 SLP199 T01440033

Heure: 06:18 (13:18 UTC)

Prévision

Le bulletin a été fait il y a 1 heure et 58 minutes, à 11:20 UTC
Prévision valable du 06 à 12 UTC au 07 à 12 UTC
Vent 6 kt de direction variable
Visibilité: 10 km
Nuages épars à une hauteur de 10000 ft

TAF: KPGA 061120Z 0612/0712 VRB06KT P6SM SCT100

Observations et prévisions météorologiques de plus de 4000 aéroports (messages METAR et TAF).

Les stations disponibles sont représentées par des disques jaunes et rouges sur la carte.

Passer la souris dessus pour voir le nom de la station.

Cliquer dessus pour voir les observations et prévisions météorologiques.

Pour changer de carte: cliquez sur les boutons verts avec une croix noire pour zoomer, sur le bouton vert avec un tiret pour effectuer un zoom arrière, ou sur les flèches vertes pour les cartes adjacentes.


METAR-TAF: